createdAt,value
2022-08-26T00:00:20.164Z,25.40
2022-08-26T00:02:49.854Z,25.36
2022-08-26T00:05:17.267Z,25.40
2022-08-26T00:07:45.461Z,25.31
2022-08-26T00:10:13.308Z,25.24
2022-08-26T00:12:42.329Z,25.31
2022-08-26T00:15:14.262Z,25.29
2022-08-26T00:17:42.571Z,25.31
2022-08-26T00:20:10.886Z,25.26
2022-08-26T00:22:40.485Z,25.25
2022-08-26T00:25:08.844Z,25.13
2022-08-26T00:27:37.334Z,24.92
2022-08-26T00:30:08.579Z,24.91
2022-08-26T00:32:36.235Z,24.96
2022-08-26T00:35:05.151Z,25.00
2022-08-26T00:37:33.530Z,24.93
2022-08-26T00:40:01.813Z,24.84
2022-08-26T00:42:32.886Z,24.87
2022-08-26T00:45:01.839Z,24.87
2022-08-26T00:47:52.330Z,24.83
2022-08-26T00:50:24.140Z,24.64
2022-08-26T00:52:53.163Z,24.59
2022-08-26T00:55:27.509Z,24.53
2022-08-26T00:58:05.849Z,24.40
2022-08-26T01:00:34.929Z,24.38
2022-08-26T01:03:03.572Z,24.22
2022-08-26T01:05:33.433Z,24.34
2022-08-26T01:08:03.615Z,24.51
2022-08-26T01:10:31.356Z,24.31
2022-08-26T01:13:00.192Z,24.46
2022-08-26T01:15:35.739Z,24.23
2022-08-26T01:18:05.885Z,24.21
2022-08-26T01:20:36.930Z,24.31
2022-08-26T01:23:08.484Z,24.41
2022-08-26T01:25:39.145Z,24.41
2022-08-26T01:28:09.092Z,24.51
2022-08-26T01:30:37.890Z,24.42
2022-08-26T01:33:06.040Z,24.38
2022-08-26T01:35:34.089Z,24.31
2022-08-26T01:38:02.409Z,24.30
2022-08-26T01:40:48.931Z,24.25
2022-08-26T01:43:20.571Z,24.25
2022-08-26T01:45:49.629Z,24.09
2022-08-26T01:48:18.817Z,24.18
2022-08-26T01:50:46.884Z,24.05
2022-08-26T01:53:15.587Z,24.07
2022-08-26T01:55:44.423Z,24.05
2022-08-26T01:58:17.874Z,24.05
2022-08-26T02:00:46.826Z,23.92
2022-08-26T02:03:18.347Z,24.01
2022-08-26T02:05:48.745Z,23.77
2022-08-26T02:08:24.641Z,23.89
2022-08-26T02:10:54.884Z,23.83
2022-08-26T02:13:24.642Z,23.91
2022-08-26T02:15:54.017Z,23.85
2022-08-26T02:18:22.906Z,23.90
2022-08-26T02:20:51.808Z,23.84
2022-08-26T02:23:20.068Z,23.84
2022-08-26T02:26:06.151Z,23.83
2022-08-26T02:29:05.071Z,23.73
2022-08-26T02:31:36.100Z,23.58
2022-08-26T02:34:13.945Z,23.53
2022-08-26T02:36:42.874Z,23.56
2022-08-26T02:39:11.813Z,23.72
2022-08-26T02:41:44.875Z,23.66
2022-08-26T02:44:13.397Z,23.71
2022-08-26T02:46:41.876Z,23.58
2022-08-26T02:49:15.588Z,23.57
2022-08-26T02:51:44.615Z,23.43
2022-08-26T02:54:12.903Z,23.49
2022-08-26T02:56:41.790Z,23.36
2022-08-26T02:59:09.506Z,23.25
2022-08-26T03:01:37.332Z,23.32
2022-08-26T03:04:07.590Z,23.40
2022-08-26T03:06:35.515Z,23.37
2022-08-26T03:09:04.729Z,23.46
2022-08-26T03:11:33.276Z,23.44
2022-08-26T03:14:01.732Z,23.39
2022-08-26T03:16:34.559Z,23.39
2022-08-26T03:19:05.490Z,23.34
2022-08-26T03:21:33.589Z,23.45
2022-08-26T03:24:01.680Z,23.29
2022-08-26T03:26:29.590Z,23.38
2022-08-26T03:29:16.656Z,23.27
2022-08-26T03:31:47.117Z,23.18
2022-08-26T03:34:15.746Z,23.22
2022-08-26T03:36:44.424Z,22.98
2022-08-26T03:39:13.149Z,23.20
2022-08-26T03:41:41.047Z,23.16
2022-08-26T03:44:11.468Z,23.17
2022-08-26T03:46:39.589Z,23.09
2022-08-26T03:49:07.363Z,23.22
2022-08-26T03:51:35.152Z,23.20
2022-08-26T03:54:08.353Z,23.04
2022-08-26T03:56:36.864Z,23.03
2022-08-26T03:59:05.430Z,23.09
2022-08-26T04:01:35.508Z,22.92
2022-08-26T04:04:06.540Z,22.97
2022-08-26T04:06:36.916Z,22.59
2022-08-26T04:09:08.293Z,22.81
2022-08-26T04:11:38.290Z,22.70
2022-08-26T04:14:14.371Z,22.40
2022-08-26T04:16:45.525Z,22.72
2022-08-26T04:19:14.783Z,22.74
2022-08-26T04:21:42.512Z,22.76
2022-08-26T04:24:13.277Z,22.89
2022-08-26T04:26:42.813Z,22.69
2022-08-26T04:29:13.101Z,22.72
2022-08-26T04:31:41.501Z,22.79
2022-08-26T04:34:14.132Z,22.80
2022-08-26T04:36:43.937Z,22.70
2022-08-26T04:39:12.658Z,22.53
2022-08-26T04:41:40.391Z,22.83
2022-08-26T04:44:08.516Z,22.93
2022-08-26T04:46:39.798Z,23.07
2022-08-26T04:49:11.784Z,23.08
2022-08-26T04:51:39.801Z,23.23
2022-08-26T04:54:07.395Z,23.26
2022-08-26T04:56:39.320Z,23.41
2022-08-26T04:59:16.756Z,23.31
2022-08-26T05:01:46.758Z,23.22
2022-08-26T05:04:23.446Z,23.54
2022-08-26T05:06:54.051Z,23.54
2022-08-26T05:09:26.371Z,23.54
2022-08-26T05:11:55.317Z,23.63
2022-08-26T05:14:23.813Z,23.83
2022-08-26T05:16:51.681Z,24.17
2022-08-26T05:19:19.773Z,23.95
2022-08-26T05:21:49.592Z,23.94
2022-08-26T05:24:19.362Z,24.14
2022-08-26T05:26:48.117Z,24.34
2022-08-26T05:29:16.921Z,24.23
2022-08-26T05:31:50.379Z,24.20
2022-08-26T05:36:54.416Z,24.72
2022-08-26T05:39:24.732Z,24.57
2022-08-26T05:41:53.504Z,24.75
2022-08-26T05:44:22.494Z,25.25
2022-08-26T05:46:52.024Z,25.22
2022-08-26T05:49:22.537Z,25.19
2022-08-26T05:52:03.780Z,25.77
2022-08-26T05:54:34.253Z,25.83
2022-08-26T05:57:08.820Z,26.01
2022-08-26T05:59:46.814Z,26.29
2022-08-26T06:02:19.801Z,26.37
2022-08-26T06:04:48.187Z,26.51
2022-08-26T06:07:16.997Z,26.53
2022-08-26T06:09:46.426Z,26.70
2022-08-26T06:12:18.550Z,26.73
2022-08-26T06:14:48.976Z,26.70
2022-08-26T06:17:17.320Z,27.05
2022-08-26T06:19:52.381Z,27.19
2022-08-26T06:22:40.381Z,27.46
2022-08-26T06:25:29.046Z,27.63
2022-08-26T06:27:57.747Z,27.69
2022-08-26T06:30:26.399Z,28.04
2022-08-26T06:32:59.484Z,28.05
2022-08-26T06:35:28.533Z,27.92
2022-08-26T06:38:05.084Z,27.68
2022-08-26T06:40:47.709Z,28.15
2022-08-26T06:43:21.376Z,28.44
2022-08-26T06:45:49.614Z,28.57
2022-08-26T06:48:25.665Z,28.77
2022-08-26T06:51:03.942Z,28.97
2022-08-26T06:53:31.898Z,28.97
2022-08-26T06:56:03.324Z,28.44
2022-08-26T06:58:39.838Z,28.73
2022-08-26T07:01:18.745Z,29.12
2022-08-26T07:03:54.265Z,29.23
2022-08-26T07:06:26.318Z,29.11
2022-08-26T07:09:01.849Z,28.86
2022-08-26T07:11:33.078Z,29.47
2022-08-26T07:14:01.973Z,29.47
2022-08-26T07:16:40.623Z,29.41
2022-08-26T07:19:13.688Z,29.57
2022-08-26T07:21:42.416Z,29.32
2022-08-26T07:24:17.229Z,29.36
2022-08-26T07:26:59.390Z,29.60
2022-08-26T07:29:34.604Z,29.72
2022-08-26T07:32:04.633Z,29.94
2022-08-26T07:34:33.325Z,29.79
2022-08-26T07:37:01.511Z,29.68
2022-08-26T07:39:34.680Z,30.16
2022-08-26T07:42:07.892Z,30.11
2022-08-26T07:50:00.481Z,29.82
2022-08-26T07:52:31.957Z,30.03
2022-08-26T07:55:02.637Z,30.26
2022-08-26T07:57:30.865Z,30.16
2022-08-26T08:00:01.704Z,30.41
2022-08-26T08:02:40.837Z,30.72
2022-08-26T08:05:09.793Z,30.69
2022-08-26T08:10:30.488Z,30.94
2022-08-26T08:13:02.164Z,31.30
2022-08-26T08:15:33.334Z,31.03
2022-08-26T08:18:03.431Z,31.00
2022-08-26T08:20:34.246Z,31.04
2022-08-26T08:23:04.402Z,31.06
2022-08-26T08:25:33.281Z,31.33
2022-08-26T08:28:02.670Z,30.81
2022-08-26T08:30:37.759Z,30.76
2022-08-26T08:33:07.011Z,31.31
2022-08-26T08:35:35.667Z,31.72
2022-08-26T08:38:04.154Z,31.74
2022-08-26T08:40:32.393Z,31.73
2022-08-26T08:43:04.241Z,31.71
2022-08-26T08:45:37.829Z,31.82
2022-08-26T08:48:12.403Z,31.99
2022-08-26T08:50:47.132Z,31.52
2022-08-26T08:53:20.476Z,31.85
2022-08-26T08:55:53.386Z,32.30
2022-08-26T08:58:23.524Z,32.39
2022-08-26T09:00:55.436Z,32.67
2022-08-26T09:03:29.300Z,32.17
2022-08-26T09:05:59.618Z,32.54
2022-08-26T09:08:33.817Z,33.10
2022-08-26T09:11:04.557Z,33.09
2022-08-26T09:13:47.714Z,32.71
2022-08-26T09:16:21.586Z,32.82
2022-08-26T09:19:11.173Z,33.36
2022-08-26T09:21:39.921Z,33.62
2022-08-26T09:24:08.466Z,33.43
2022-08-26T09:26:47.535Z,33.08
2022-08-26T09:29:22.652Z,32.72
2022-08-26T09:32:36.490Z,33.52
2022-08-26T09:35:16.393Z,33.68
2022-08-26T09:37:55.440Z,33.43
2022-08-26T09:40:29.223Z,33.78
2022-08-26T09:43:22.046Z,33.84
2022-08-26T09:45:59.537Z,34.21
2022-08-26T09:48:36.498Z,33.88
2022-08-26T09:51:26.686Z,33.76
2022-08-26T09:54:01.947Z,34.13
2022-08-26T09:56:41.361Z,34.55
2022-08-26T09:59:12.254Z,34.31
2022-08-26T10:01:44.757Z,33.99
2022-08-26T10:04:24.873Z,34.17
2022-08-26T10:06:56.457Z,34.13
2022-08-26T10:09:28.115Z,34.21
2022-08-26T10:12:12.558Z,33.86
2022-08-26T10:17:24.443Z,34.65
2022-08-26T10:19:57.714Z,34.43
2022-08-26T10:22:49.244Z,34.58
2022-08-26T10:25:21.475Z,34.90
2022-08-26T10:27:57.806Z,34.73
2022-08-26T10:30:32.606Z,35.31
2022-08-26T10:33:05.300Z,35.48
2022-08-26T10:35:36.422Z,35.32
2022-08-26T10:38:09.754Z,34.87
2022-08-26T10:40:39.293Z,34.75
2022-08-26T10:43:30.468Z,34.86
2022-08-26T10:46:08.720Z,34.95
2022-08-26T10:51:22.386Z,35.73
2022-08-26T10:54:34.049Z,35.74
2022-08-26T10:57:03.920Z,35.39
2022-08-26T10:59:45.021Z,35.45
2022-08-26T11:02:34.694Z,35.98
2022-08-26T11:05:08.917Z,36.23
2022-08-26T11:07:49.673Z,36.44
2022-08-26T11:10:21.367Z,36.41
2022-08-26T11:12:57.774Z,36.37
2022-08-26T11:15:29.776Z,36.30
2022-08-26T11:18:03.669Z,36.31
2022-08-26T11:20:41.762Z,36.35
2022-08-26T11:23:18.099Z,36.32
2022-08-26T11:26:12.493Z,36.79
2022-08-26T11:28:54.655Z,37.00
2022-08-26T11:31:31.911Z,37.17
2022-08-26T11:34:02.097Z,37.19
2022-08-26T11:36:39.879Z,36.83
2022-08-26T11:39:30.412Z,36.60
2022-08-26T11:42:04.570Z,36.89
2022-08-26T11:44:41.607Z,36.80
2022-08-26T11:47:25.337Z,36.58
2022-08-26T11:50:34.236Z,36.05
2022-08-26T11:53:07.740Z,36.78
2022-08-26T11:55:37.537Z,36.57
2022-08-26T11:58:08.204Z,36.79
2022-08-26T12:00:45.780Z,36.23
2022-08-26T12:03:24.162Z,36.60
2022-08-26T12:05:57.441Z,36.67
2022-08-26T12:08:28.517Z,36.63
2022-08-26T12:11:04.158Z,36.45
2022-08-26T12:13:40.478Z,36.22
2022-08-26T12:16:22.684Z,36.13
2022-08-26T12:18:54.075Z,36.48
2022-08-26T12:21:29.432Z,36.41
2022-08-26T12:24:04.483Z,36.82
2022-08-26T12:26:36.707Z,37.11
2022-08-26T12:29:19.853Z,36.84
2022-08-26T12:32:15.668Z,37.22
2022-08-26T12:34:45.096Z,37.21
2022-08-26T12:37:14.562Z,37.07
2022-08-26T12:39:56.684Z,37.67
2022-08-26T12:42:42.289Z,37.73
2022-08-26T12:45:11.501Z,37.55
2022-08-26T12:47:45.406Z,37.26
2022-08-26T12:50:21.423Z,37.34
2022-08-26T12:53:08.363Z,36.81
2022-08-26T13:01:14.543Z,36.85
2022-08-26T13:04:03.444Z,36.63
2022-08-26T13:06:32.613Z,36.84
2022-08-26T13:09:07.579Z,37.19
2022-08-26T13:11:45.115Z,36.75
2022-08-26T13:14:18.394Z,36.67
2022-08-26T13:16:55.893Z,36.99
2022-08-26T13:19:29.922Z,37.24
2022-08-26T13:24:44.753Z,36.76
2022-08-26T13:27:15.453Z,36.37
2022-08-26T13:29:51.652Z,36.67
2022-08-26T13:32:31.483Z,36.46
2022-08-26T13:35:00.925Z,36.87
2022-08-26T13:37:43.647Z,36.63
2022-08-26T13:42:53.607Z,36.76
2022-08-26T13:45:21.693Z,37.15
2022-08-26T13:47:52.001Z,36.90
2022-08-26T13:52:58.601Z,36.61
2022-08-26T13:55:34.407Z,36.72
2022-08-26T13:58:06.302Z,37.10
2022-08-26T14:00:33.978Z,37.41
2022-08-26T14:03:04.595Z,37.19
2022-08-26T14:05:38.605Z,36.95
2022-08-26T14:08:06.794Z,37.20
2022-08-26T14:10:37.152Z,37.09
2022-08-26T14:13:13.667Z,37.17
2022-08-26T14:15:47.570Z,36.97
2022-08-26T14:18:17.094Z,36.35
2022-08-26T14:20:55.162Z,36.45
2022-08-26T14:23:23.889Z,36.24
2022-08-26T14:28:29.566Z,35.97
2022-08-26T14:31:02.048Z,35.91
2022-08-26T14:33:38.664Z,36.10
2022-08-26T14:36:32.847Z,36.31
2022-08-26T14:39:12.643Z,36.32
2022-08-26T14:41:54.692Z,36.23
2022-08-26T14:44:37.465Z,35.96
2022-08-26T14:47:08.815Z,36.40
2022-08-26T14:49:37.047Z,35.99
2022-08-26T14:54:55.407Z,36.49
2022-08-26T14:57:26.823Z,36.69
2022-08-26T14:59:57.678Z,36.64
2022-08-26T15:02:34.013Z,36.12
2022-08-26T15:05:07.977Z,36.14
2022-08-26T15:07:38.539Z,35.97
2022-08-26T15:10:14.626Z,36.25
2022-08-26T15:12:45.269Z,36.30
2022-08-26T15:15:15.635Z,36.23
2022-08-26T15:17:49.724Z,35.85
2022-08-26T15:20:34.563Z,35.81
2022-08-26T15:23:06.030Z,35.73
2022-08-26T15:25:40.041Z,35.73
2022-08-26T15:28:12.798Z,35.86
2022-08-26T15:30:48.948Z,35.56
2022-08-26T15:33:26.574Z,35.56
2022-08-26T15:35:55.930Z,35.30
2022-08-26T15:38:23.903Z,35.43
2022-08-26T15:40:51.331Z,35.54
2022-08-26T15:43:28.638Z,35.47
2022-08-26T15:45:59.884Z,35.60
2022-08-26T15:48:33.580Z,35.48
2022-08-26T15:51:02.225Z,35.46
2022-08-26T15:53:33.189Z,35.38
2022-08-26T15:56:10.637Z,35.27
2022-08-26T15:58:39.769Z,35.00
2022-08-26T16:01:11.597Z,35.20
2022-08-26T16:03:41.891Z,34.94
2022-08-26T16:06:09.628Z,34.68
2022-08-26T16:08:40.627Z,34.94
2022-08-26T16:13:52.631Z,35.01
2022-08-26T16:16:21.659Z,34.92
2022-08-26T16:18:49.877Z,34.74
2022-08-26T16:21:18.315Z,34.40
2022-08-26T16:23:47.595Z,34.40
2022-08-26T16:26:24.512Z,34.33
2022-08-26T16:28:54.828Z,34.12
2022-08-26T16:31:31.198Z,34.13
2022-08-26T16:34:07.737Z,34.06
2022-08-26T16:36:39.320Z,33.75
2022-08-26T16:39:07.629Z,33.83
2022-08-26T16:41:42.900Z,33.63
2022-08-26T16:44:23.803Z,33.63
2022-08-26T16:46:58.736Z,33.39
2022-08-26T16:49:29.806Z,33.22
2022-08-26T16:52:03.880Z,32.83
2022-08-26T16:54:32.040Z,32.82
2022-08-26T16:57:00.276Z,32.54
2022-08-26T16:59:38.646Z,32.06
2022-08-26T17:02:09.640Z,32.05
2022-08-26T17:04:39.596Z,32.20
2022-08-26T17:07:09.840Z,31.90
2022-08-26T17:09:41.453Z,32.05
2022-08-26T17:12:11.744Z,31.82
2022-08-26T17:14:46.973Z,31.83
2022-08-26T17:17:19.014Z,31.79
2022-08-26T17:19:47.603Z,31.71
2022-08-26T17:22:19.866Z,31.51
2022-08-26T17:24:48.076Z,31.52
2022-08-26T17:27:16.433Z,31.24
2022-08-26T17:29:49.637Z,31.24
2022-08-26T17:32:22.622Z,31.00
2022-08-26T17:34:51.880Z,31.06
2022-08-26T17:37:26.050Z,31.03
2022-08-26T17:39:53.832Z,30.85
2022-08-26T17:42:31.078Z,30.92
2022-08-26T17:45:00.033Z,30.90
2022-08-26T17:47:30.619Z,30.73
2022-08-26T17:50:05.614Z,30.67
2022-08-26T17:52:35.640Z,30.52
2022-08-26T17:55:11.040Z,30.49
2022-08-26T17:57:53.445Z,30.36
2022-08-26T18:03:04.643Z,30.37
2022-08-26T18:05:32.090Z,30.18
2022-08-26T18:08:06.628Z,30.02
2022-08-26T18:10:38.648Z,29.91
2022-08-26T18:13:06.866Z,29.88
2022-08-26T18:15:48.728Z,29.89
2022-08-26T18:18:19.698Z,29.72
2022-08-26T18:20:52.611Z,29.56
2022-08-26T18:23:31.836Z,29.43
2022-08-26T18:26:06.698Z,29.30
2022-08-26T18:28:47.638Z,29.23
2022-08-26T18:31:15.840Z,29.15
2022-08-26T18:33:51.572Z,28.95
2022-08-26T18:36:23.877Z,29.09
2022-08-26T18:38:59.850Z,28.79
2022-08-26T18:44:20.290Z,29.07
2022-08-26T18:46:48.453Z,28.68
2022-08-26T18:49:23.746Z,28.53
2022-08-26T18:52:01.812Z,28.45
2022-08-26T18:54:43.822Z,28.10
2022-08-26T18:57:30.523Z,27.99
2022-08-26T19:00:05.911Z,28.22
2022-08-26T19:02:51.678Z,28.38
2022-08-26T19:05:28.656Z,28.16
2022-08-26T19:08:01.638Z,28.06
2022-08-26T19:10:30.682Z,27.99
2022-08-26T19:13:00.798Z,28.01
2022-08-26T19:15:32.038Z,27.79
2022-08-26T19:18:09.150Z,27.85
2022-08-26T19:20:49.638Z,27.72
2022-08-26T19:23:31.371Z,27.35
2022-08-26T19:26:11.873Z,27.43
2022-08-26T19:28:52.587Z,27.60
2022-08-26T19:31:23.973Z,27.36
2022-08-26T19:33:58.193Z,27.39
2022-08-26T19:36:29.349Z,27.54
2022-08-26T19:38:57.649Z,27.38
2022-08-26T19:41:37.444Z,27.36
2022-08-26T19:44:38.623Z,27.53
2022-08-26T19:47:11.744Z,27.29
2022-08-26T19:49:46.775Z,27.38
2022-08-26T19:52:20.776Z,27.34
2022-08-26T19:54:51.675Z,27.30
2022-08-26T19:57:43.886Z,27.33
2022-08-26T20:00:23.808Z,27.22
2022-08-26T20:02:56.878Z,27.00
2022-08-26T20:05:24.952Z,27.03
2022-08-26T20:07:54.643Z,26.88
2022-08-26T20:10:26.643Z,26.97
2022-08-26T20:13:00.637Z,26.85
2022-08-26T20:15:38.645Z,26.96
2022-08-26T20:18:44.860Z,26.66
2022-08-26T20:21:26.716Z,26.69
2022-08-26T20:24:05.510Z,26.72
2022-08-26T20:26:39.684Z,26.73
2022-08-26T20:29:08.784Z,26.78
2022-08-26T20:31:48.478Z,26.50
2022-08-26T20:34:22.792Z,26.60
2022-08-26T20:36:58.773Z,26.48
2022-08-26T20:39:29.818Z,26.45
2022-08-26T20:41:58.712Z,26.30
2022-08-26T20:44:36.273Z,26.33
2022-08-26T20:47:19.461Z,26.30
2022-08-26T20:49:48.847Z,26.17
2022-08-26T20:52:20.940Z,26.26
2022-08-26T20:54:49.205Z,26.30
2022-08-26T20:57:18.735Z,26.15
2022-08-26T20:59:48.076Z,26.21
2022-08-26T21:02:18.506Z,25.90
2022-08-26T21:04:49.679Z,26.09
2022-08-26T21:07:17.898Z,26.16
2022-08-26T21:09:47.075Z,26.19
2022-08-26T21:12:14.963Z,26.02
2022-08-26T21:14:49.552Z,26.17
2022-08-26T21:17:19.531Z,26.13
2022-08-26T21:19:48.620Z,26.23
2022-08-26T21:22:19.731Z,26.17
2022-08-26T21:24:49.650Z,26.19
2022-08-26T21:27:26.530Z,26.08
2022-08-26T21:29:57.213Z,25.88
2022-08-26T21:32:31.319Z,26.08
2022-08-26T21:34:59.772Z,25.92
2022-08-26T21:37:31.165Z,26.10
2022-08-26T21:40:02.168Z,25.98
2022-08-26T21:42:33.176Z,25.95
2022-08-26T21:45:01.638Z,25.93
2022-08-26T21:47:34.736Z,25.92
2022-08-26T21:50:03.946Z,26.02
2022-08-26T21:52:33.114Z,26.00
2022-08-26T21:55:09.102Z,26.04
2022-08-26T21:57:39.374Z,25.95
2022-08-26T22:00:09.373Z,26.01
2022-08-26T22:02:37.460Z,25.85
2022-08-26T22:05:06.890Z,25.83
2022-08-26T22:07:34.736Z,25.96
2022-08-26T22:10:03.177Z,25.94
2022-08-26T22:12:30.537Z,25.88
2022-08-26T22:15:02.620Z,26.15
2022-08-26T22:17:30.870Z,25.87
2022-08-26T22:20:02.160Z,25.56
2022-08-26T22:22:33.626Z,25.16
2022-08-26T22:25:02.822Z,25.13
2022-08-26T22:27:30.543Z,25.42
2022-08-26T22:29:59.726Z,24.99
2022-08-26T22:32:27.104Z,24.98
2022-08-26T22:34:54.620Z,25.17
2022-08-26T22:37:24.744Z,25.36
2022-08-26T22:39:52.520Z,25.11
2022-08-26T22:42:20.006Z,25.35
2022-08-26T22:44:48.237Z,25.28
2022-08-26T22:47:15.714Z,25.28
2022-08-26T22:49:43.398Z,25.23
2022-08-26T22:52:11.292Z,25.31
2022-08-26T22:54:38.932Z,25.36
2022-08-26T22:57:07.914Z,25.43
2022-08-26T22:59:36.480Z,25.41
2022-08-26T23:02:05.090Z,25.24
2022-08-26T23:04:39.763Z,24.99
2022-08-26T23:07:08.024Z,25.10
2022-08-26T23:09:38.532Z,25.15
2022-08-26T23:12:06.550Z,25.10
2022-08-26T23:14:36.625Z,25.18
2022-08-26T23:17:09.097Z,24.97
2022-08-26T23:19:36.485Z,24.64
2022-08-26T23:22:04.183Z,24.83
2022-08-26T23:24:32.309Z,24.66
2022-08-26T23:27:00.673Z,24.83
2022-08-26T23:29:29.644Z,24.70
2022-08-26T23:31:57.660Z,24.86
2022-08-26T23:34:44.990Z,24.88
2022-08-26T23:37:14.237Z,24.86
2022-08-26T23:39:42.806Z,24.54
2022-08-26T23:42:10.940Z,24.54
2022-08-26T23:44:39.131Z,24.54
2022-08-26T23:47:08.320Z,24.39
2022-08-26T23:49:40.175Z,24.53
2022-08-26T23:52:26.570Z,24.65
2022-08-26T23:54:58.595Z,24.53
2022-08-26T23:57:27.399Z,24.65
2022-08-26T23:59:54.847Z,24.52
